createdAt,value
2023-04-13T00:00:36.631Z,13.35
2023-04-13T00:03:03.859Z,13.18
2023-04-13T00:05:31.296Z,13.07
2023-04-13T00:08:03.028Z,13.19
2023-04-13T00:10:31.552Z,13.10
2023-04-13T00:13:01.650Z,13.16
2023-04-13T00:15:28.319Z,12.97
2023-04-13T00:17:55.120Z,12.71
2023-04-13T00:20:21.829Z,12.38
2023-04-13T00:22:49.030Z,12.08
2023-04-13T00:25:15.921Z,12.06
2023-04-13T00:27:43.618Z,12.08
2023-04-13T00:30:11.661Z,12.49
2023-04-13T00:32:39.141Z,11.58
2023-04-13T00:35:06.075Z,11.98
2023-04-13T00:37:32.877Z,11.93
2023-04-13T00:39:59.642Z,11.66
2023-04-13T00:42:26.753Z,11.42
2023-04-13T00:44:53.739Z,12.05
2023-04-13T00:47:22.586Z,11.68
2023-04-13T00:49:49.519Z,12.15
2023-04-13T00:52:16.315Z,12.04
2023-04-13T00:54:43.025Z,12.23
2023-04-13T00:57:09.731Z,11.78
2023-04-13T00:59:36.478Z,11.66
2023-04-13T01:02:05.686Z,11.79
2023-04-13T01:04:32.694Z,11.60
2023-04-13T01:07:03.590Z,11.27
2023-04-13T01:09:31.602Z,11.25
2023-04-13T01:12:17.912Z,11.55
2023-04-13T01:14:57.027Z,11.56
2023-04-13T01:17:28.988Z,11.24
2023-04-13T01:20:01.723Z,11.22
2023-04-13T01:22:29.554Z,10.93
2023-04-13T01:25:03.738Z,10.67
2023-04-13T01:27:30.400Z,10.47
2023-04-13T01:29:57.188Z,10.66
2023-04-13T01:32:23.904Z,10.68
2023-04-13T01:34:50.570Z,10.75
2023-04-13T01:37:17.573Z,10.58
2023-04-13T01:39:44.317Z,11.05
2023-04-13T01:42:11.164Z,10.79
2023-04-13T01:44:38.264Z,10.76
2023-04-13T01:47:16.209Z,10.47
2023-04-13T01:49:45.208Z,10.24
2023-04-13T01:52:12.137Z,10.06
2023-04-13T01:54:38.848Z,10.50
2023-04-13T01:57:05.531Z,10.05
2023-04-13T01:59:32.396Z,8.79
2023-04-13T02:01:59.613Z,9.24
2023-04-13T02:04:26.469Z,9.10
2023-04-13T02:06:53.498Z,9.37
2023-04-13T02:09:20.194Z,9.99
2023-04-13T02:11:47.625Z,10.19
2023-04-13T02:14:14.811Z,10.05
2023-04-13T02:16:42.007Z,10.05
2023-04-13T02:19:08.823Z,10.58
2023-04-13T02:21:35.484Z,10.32
2023-04-13T02:24:02.782Z,10.36
2023-04-13T02:26:29.435Z,10.92
2023-04-13T02:28:56.685Z,10.66
2023-04-13T02:31:23.692Z,10.14
2023-04-13T02:33:51.933Z,10.03
2023-04-13T02:36:19.356Z,9.23
2023-04-13T02:38:46.096Z,9.98
2023-04-13T02:41:12.800Z,9.52
2023-04-13T02:43:39.473Z,10.22
2023-04-13T02:46:06.426Z,10.64
2023-04-13T02:48:33.252Z,10.65
2023-04-13T02:50:59.935Z,10.65
2023-04-13T02:53:27.368Z,10.55
2023-04-13T02:55:55.066Z,10.08
2023-04-13T02:58:23.478Z,10.71
2023-04-13T03:00:50.306Z,10.58
2023-04-13T03:03:17.248Z,10.46
2023-04-13T03:05:44.058Z,10.78
2023-04-13T03:08:10.752Z,10.79
2023-04-13T03:10:40.554Z,10.62
2023-04-13T03:13:07.696Z,10.51
2023-04-13T03:15:34.441Z,10.20
2023-04-13T03:18:01.268Z,10.35
2023-04-13T03:20:29.385Z,10.39
2023-04-13T03:22:57.307Z,10.34
2023-04-13T03:25:24.010Z,10.63
2023-04-13T03:27:51.031Z,10.43
2023-04-13T03:30:18.898Z,10.64
2023-04-13T03:32:45.868Z,10.02
2023-04-13T03:35:12.637Z,11.01
2023-04-13T03:37:43.614Z,10.81
2023-04-13T03:40:10.890Z,10.76
2023-04-13T03:42:38.000Z,11.12
2023-04-13T03:45:05.219Z,11.40
2023-04-13T03:47:31.977Z,10.65
2023-04-13T03:49:58.695Z,10.41
2023-04-13T03:52:25.499Z,10.55
2023-04-13T03:54:52.527Z,10.61
2023-04-13T03:57:19.235Z,10.15
2023-04-13T03:59:45.888Z,10.13
2023-04-13T04:02:12.576Z,9.86
2023-04-13T04:04:39.338Z,9.72
2023-04-13T04:07:06.085Z,10.03
2023-04-13T04:09:33.002Z,10.06
2023-04-13T04:11:59.727Z,9.89
2023-04-13T04:14:26.406Z,9.53
2023-04-13T04:16:53.095Z,9.81
2023-04-13T04:19:19.840Z,9.98
2023-04-13T04:21:47.234Z,10.03
2023-04-13T04:24:23.526Z,10.62
2023-04-13T04:26:50.714Z,10.92
2023-04-13T04:29:17.989Z,10.68
2023-04-13T04:31:44.728Z,10.08
2023-04-13T04:34:11.764Z,10.07
2023-04-13T04:36:41.946Z,9.88
2023-04-13T04:39:10.116Z,9.86
2023-04-13T04:41:37.948Z,9.97
2023-04-13T04:44:07.933Z,9.96
2023-04-13T04:46:38.847Z,10.04
2023-04-13T04:49:05.590Z,10.03
2023-04-13T04:51:34.330Z,10.23
2023-04-13T04:54:02.410Z,10.71
2023-04-13T04:56:29.228Z,10.84
2023-04-13T04:58:55.921Z,10.90
2023-04-13T05:01:26.778Z,11.21
2023-04-13T05:03:53.821Z,11.31
2023-04-13T05:06:20.545Z,11.35
2023-04-13T05:08:47.189Z,11.21
2023-04-13T05:11:13.903Z,11.61
2023-04-13T05:13:40.679Z,11.44
2023-04-13T05:16:07.823Z,11.19
2023-04-13T05:18:43.228Z,11.40
2023-04-13T05:21:09.992Z,11.11
2023-04-13T05:23:36.861Z,9.78
2023-04-13T05:26:03.572Z,9.81
2023-04-13T05:28:30.240Z,10.13
2023-04-13T05:31:03.393Z,9.29
2023-04-13T05:33:30.472Z,9.22
2023-04-13T05:35:57.469Z,9.45
2023-04-13T05:38:24.450Z,10.12
2023-04-13T05:40:51.138Z,9.17
2023-04-13T05:43:17.994Z,9.17
2023-04-13T05:45:44.679Z,9.16
2023-04-13T05:48:11.965Z,8.88
2023-04-13T05:50:38.857Z,9.05
2023-04-13T05:53:08.835Z,9.02
2023-04-13T05:55:35.507Z,9.08
2023-04-13T05:58:03.988Z,9.26
2023-04-13T06:00:30.732Z,9.67
2023-04-13T06:02:59.501Z,9.98
2023-04-13T06:05:26.421Z,9.79
2023-04-13T06:07:53.800Z,9.93
2023-04-13T06:10:20.505Z,10.21
2023-04-13T06:12:48.902Z,10.80
2023-04-13T06:15:15.666Z,10.22
2023-04-13T06:17:44.402Z,9.92
2023-04-13T06:20:11.440Z,9.60
2023-04-13T06:22:38.097Z,10.26
2023-04-13T06:25:04.933Z,10.31
2023-04-13T06:27:33.824Z,10.83
2023-04-13T06:30:01.378Z,10.48
2023-04-13T06:32:28.168Z,10.76
2023-04-13T06:34:54.949Z,10.14
2023-04-13T06:37:22.480Z,10.82
2023-04-13T06:39:49.193Z,10.76
2023-04-13T06:42:16.426Z,10.87
2023-04-13T06:44:43.069Z,11.59
2023-04-13T06:47:09.801Z,11.26
2023-04-13T06:49:37.064Z,11.63
2023-04-13T06:52:03.775Z,11.70
2023-04-13T06:54:30.924Z,12.22
2023-04-13T06:56:57.945Z,11.91
2023-04-13T06:59:24.655Z,11.88
2023-04-13T07:01:51.651Z,11.92
2023-04-13T07:04:18.581Z,12.03
2023-04-13T07:06:45.688Z,11.39
2023-04-13T07:09:13.398Z,11.39
2023-04-13T07:11:40.069Z,10.59
2023-04-13T07:14:06.894Z,11.08
2023-04-13T07:16:33.663Z,11.13
2023-04-13T07:19:02.014Z,11.06
2023-04-13T07:21:28.809Z,10.86
2023-04-13T07:23:55.556Z,10.87
2023-04-13T07:26:22.222Z,10.28
2023-04-13T07:28:48.871Z,10.64
2023-04-13T07:31:16.380Z,11.40
2023-04-13T07:33:43.172Z,11.46
2023-04-13T07:36:10.232Z,11.10
2023-04-13T07:38:36.915Z,11.20
2023-04-13T07:41:03.603Z,11.62
2023-04-13T07:43:30.367Z,11.30
2023-04-13T07:45:57.101Z,11.77
2023-04-13T07:48:25.825Z,10.73
2023-04-13T07:50:52.985Z,11.19
2023-04-13T07:53:19.664Z,11.43
2023-04-13T07:55:46.335Z,12.06
2023-04-13T07:58:13.027Z,12.12
2023-04-13T08:00:39.725Z,12.29
2023-04-13T08:03:07.342Z,12.44
2023-04-13T08:05:35.380Z,12.58
2023-04-13T08:08:10.810Z,12.15
2023-04-13T08:10:37.475Z,12.14
2023-04-13T08:13:04.136Z,12.31
2023-04-13T08:15:30.803Z,11.42
2023-04-13T08:17:58.686Z,11.82
2023-04-13T08:20:25.517Z,11.79
2023-04-13T08:22:52.428Z,11.04
2023-04-13T08:25:20.281Z,11.21
2023-04-13T08:27:46.912Z,11.23
2023-04-13T08:30:16.631Z,11.26
2023-04-13T08:32:43.299Z,12.20
2023-04-13T08:35:10.557Z,11.64
2023-04-13T08:37:38.700Z,11.21
2023-04-13T08:40:07.926Z,11.48
2023-04-13T08:42:34.910Z,11.96
2023-04-13T08:45:01.614Z,12.45
2023-04-13T08:47:28.547Z,12.20
2023-04-13T08:50:01.805Z,12.29
2023-04-13T08:52:28.915Z,12.60
2023-04-13T08:54:56.320Z,12.64
2023-04-13T08:57:23.261Z,12.72
2023-04-13T08:59:50.636Z,12.64
2023-04-13T09:02:17.842Z,12.73
2023-04-13T09:04:45.175Z,12.69
2023-04-13T09:07:16.428Z,13.06
2023-04-13T09:09:44.076Z,12.73
2023-04-13T09:12:10.794Z,12.97
2023-04-13T09:14:38.671Z,12.93
2023-04-13T09:17:06.922Z,12.98
2023-04-13T09:19:34.183Z,12.54
2023-04-13T09:22:11.245Z,12.80
2023-04-13T09:24:41.430Z,12.34
2023-04-13T09:27:17.569Z,12.39
2023-04-13T09:29:51.778Z,12.73
2023-04-13T09:32:22.823Z,12.99
2023-04-13T09:34:59.484Z,12.85
2023-04-13T09:37:28.528Z,13.19
2023-04-13T09:39:55.286Z,13.21
2023-04-13T09:42:21.981Z,12.96
2023-04-13T09:44:58.187Z,12.75
2023-04-13T09:47:25.708Z,12.89
2023-04-13T09:49:52.529Z,12.84
2023-04-13T09:52:25.669Z,12.61
2023-04-13T09:54:57.394Z,12.60
2023-04-13T09:57:27.801Z,12.94
2023-04-13T09:59:55.043Z,12.89
2023-04-13T10:02:22.180Z,13.24
2023-04-13T10:04:49.062Z,13.05
2023-04-13T10:07:19.614Z,12.29
2023-04-13T10:09:46.274Z,11.87
2023-04-13T10:12:13.821Z,11.58
2023-04-13T10:14:43.310Z,11.76
2023-04-13T10:17:29.056Z,12.00
2023-04-13T10:19:55.941Z,12.04
2023-04-13T10:22:24.184Z,12.05
2023-04-13T10:24:51.471Z,12.37
2023-04-13T10:27:21.851Z,12.64
2023-04-13T10:29:48.803Z,12.74
2023-04-13T10:32:23.038Z,12.82
2023-04-13T10:34:49.929Z,13.33
2023-04-13T10:37:20.132Z,13.18
2023-04-13T10:39:47.228Z,13.29
2023-04-13T10:42:14.970Z,13.52
2023-04-13T10:44:43.992Z,13.57
2023-04-13T10:47:11.630Z,14.03
2023-04-13T10:49:38.590Z,13.73
2023-04-13T10:52:05.294Z,13.90
2023-04-13T10:54:31.922Z,13.61
2023-04-13T10:56:59.476Z,13.94
2023-04-13T10:59:58.844Z,14.09
2023-04-13T11:02:26.957Z,14.31
2023-04-13T11:04:54.198Z,14.36
2023-04-13T11:07:23.493Z,14.18
2023-04-13T11:09:53.595Z,14.38
2023-04-13T11:12:20.295Z,13.91
2023-04-13T11:14:50.498Z,14.40
2023-04-13T11:17:20.226Z,14.02
2023-04-13T11:19:50.779Z,13.52
2023-04-13T11:22:23.028Z,13.56
2023-04-13T11:24:50.207Z,13.28
2023-04-13T11:27:17.724Z,13.48
2023-04-13T11:29:44.496Z,13.41
2023-04-13T11:32:18.853Z,11.88
2023-04-13T11:34:47.161Z,11.83
2023-04-13T11:37:13.834Z,12.33
2023-04-13T11:39:42.884Z,12.08
2023-04-13T11:42:09.690Z,11.56
2023-04-13T11:44:36.815Z,11.80
2023-04-13T11:47:04.075Z,12.25
2023-04-13T11:49:31.527Z,12.21
2023-04-13T11:52:01.926Z,12.11
2023-04-13T11:54:31.881Z,11.75
2023-04-13T11:56:58.840Z,12.23
2023-04-13T11:59:25.608Z,11.87
2023-04-13T12:02:01.465Z,11.39
2023-04-13T12:04:37.103Z,11.78
2023-04-13T12:07:09.375Z,11.54
2023-04-13T12:15:13.716Z,12.25
2023-04-13T12:20:24.163Z,12.03
2023-04-13T12:22:55.190Z,11.92
2023-04-13T12:28:00.295Z,12.49
2023-04-13T12:30:27.399Z,13.06
2023-04-13T12:32:55.020Z,12.57
2023-04-13T12:35:21.929Z,12.28
2023-04-13T12:37:48.910Z,12.61
2023-04-13T12:40:16.829Z,12.20
2023-04-13T12:42:43.842Z,12.67
2023-04-13T12:45:10.902Z,12.84
2023-04-13T12:47:37.891Z,12.95
2023-04-13T12:50:05.033Z,12.70
2023-04-13T12:52:32.497Z,12.57
2023-04-13T12:55:00.240Z,12.49
2023-04-13T12:57:27.832Z,11.96
2023-04-13T12:59:54.873Z,12.74
2023-04-13T13:02:25.426Z,12.87
2023-04-13T13:04:52.317Z,13.30
2023-04-13T13:07:19.123Z,13.13
2023-04-13T13:09:46.162Z,13.04
2023-04-13T13:12:12.953Z,13.06
2023-04-13T13:14:39.640Z,12.66
2023-04-13T13:17:06.373Z,12.84
2023-04-13T13:19:33.229Z,12.52
2023-04-13T13:22:00.849Z,12.55
2023-04-13T13:24:27.619Z,12.62
2023-04-13T13:27:30.045Z,12.65
2023-04-13T13:29:41.653Z,12.74
2023-04-13T13:32:08.879Z,12.34
2023-04-13T13:34:35.835Z,12.50
2023-04-13T13:37:02.490Z,12.70
2023-04-13T13:39:29.193Z,13.12
2023-04-13T13:41:57.091Z,13.21
2023-04-13T13:44:23.887Z,12.79
2023-04-13T13:46:50.618Z,13.03
2023-04-13T13:49:17.271Z,13.04
2023-04-13T13:51:43.962Z,13.27
2023-04-13T13:54:10.629Z,12.69
2023-04-13T13:56:37.352Z,12.74
2023-04-13T13:59:04.109Z,12.63
2023-04-13T14:01:31.628Z,12.68
2023-04-13T14:03:59.408Z,13.08
2023-04-13T14:06:26.653Z,13.67
2023-04-13T14:08:53.574Z,13.68
2023-04-13T14:11:20.261Z,12.90
2023-04-13T14:13:46.980Z,12.54
2023-04-13T14:16:13.736Z,11.97
2023-04-13T14:18:40.469Z,11.94
2023-04-13T14:21:07.493Z,12.48
2023-04-13T14:23:34.155Z,12.22
2023-04-13T14:26:00.877Z,12.31
2023-04-13T14:28:27.573Z,12.34
2023-04-13T14:30:54.244Z,12.83
2023-04-13T14:33:21.256Z,12.40
2023-04-13T14:35:48.017Z,12.57
2023-04-13T14:38:14.886Z,12.41
2023-04-13T14:40:41.768Z,12.66
2023-04-13T14:43:08.494Z,12.87
2023-04-13T14:45:35.173Z,12.40
2023-04-13T14:48:02.005Z,11.98
2023-04-13T14:50:29.220Z,11.91
2023-04-13T14:52:56.043Z,12.07
2023-04-13T14:55:23.228Z,11.95
2023-04-13T14:57:50.292Z,11.35
2023-04-13T15:00:26.554Z,11.63
2023-04-13T15:02:53.681Z,11.63
2023-04-13T15:05:20.617Z,11.67
2023-04-13T15:07:48.064Z,11.54
2023-04-13T15:10:14.801Z,11.18
2023-04-13T15:12:41.527Z,11.74
2023-04-13T15:15:08.472Z,11.51
2023-04-13T15:17:35.279Z,11.40
2023-04-13T15:20:02.061Z,11.41
2023-04-13T15:22:30.318Z,11.20
2023-04-13T15:24:57.006Z,11.13
2023-04-13T15:27:25.882Z,11.03
2023-04-13T15:29:54.334Z,11.07
2023-04-13T15:32:21.072Z,11.47
2023-04-13T15:34:49.708Z,11.36
2023-04-13T15:37:16.813Z,11.76
2023-04-13T15:39:43.482Z,11.97
2023-04-13T15:42:10.138Z,11.88
2023-04-13T15:44:36.941Z,12.27
2023-04-13T15:47:03.574Z,12.24
2023-04-13T15:49:31.607Z,12.21
2023-04-13T15:51:58.305Z,12.23
2023-04-13T15:54:24.952Z,12.24
2023-04-13T15:56:51.791Z,11.70
2023-04-13T15:59:18.503Z,11.04
2023-04-13T16:01:45.839Z,11.38
2023-04-13T16:04:12.740Z,10.68
2023-04-13T16:06:39.934Z,10.82
2023-04-13T16:09:06.586Z,10.66
2023-04-13T16:11:33.334Z,10.49
2023-04-13T16:14:07.426Z,10.68
2023-04-13T16:16:57.512Z,9.90
2023-04-13T16:19:24.200Z,9.74
2023-04-13T16:21:54.096Z,10.19
2023-04-13T16:24:21.333Z,9.90
2023-04-13T16:26:48.174Z,9.96
2023-04-13T16:29:14.806Z,9.63
2023-04-13T16:31:45.048Z,9.76
2023-04-13T16:34:24.450Z,9.59
2023-04-13T16:36:52.845Z,9.44
2023-04-13T16:39:19.504Z,9.60
2023-04-13T16:41:46.260Z,10.00
2023-04-13T16:44:12.940Z,10.11
2023-04-13T16:46:39.609Z,9.66
2023-04-13T16:49:06.374Z,9.87
2023-04-13T16:51:33.124Z,9.66
2023-04-13T16:53:59.926Z,10.27
2023-04-13T16:56:29.921Z,10.33
2023-04-13T16:58:56.908Z,11.14
2023-04-13T17:01:25.348Z,11.77
2023-04-13T17:03:53.328Z,11.88
2023-04-13T17:06:20.481Z,11.77
2023-04-13T17:08:47.137Z,11.23
2023-04-13T17:11:13.830Z,10.88
2023-04-13T17:13:40.483Z,10.38
2023-04-13T17:16:08.230Z,10.59
2023-04-13T17:18:34.948Z,10.29
2023-04-13T17:21:01.632Z,9.92
2023-04-13T17:23:28.282Z,10.01
2023-04-13T17:25:56.670Z,10.31
2023-04-13T17:28:23.516Z,10.07
2023-04-13T17:30:50.208Z,10.37
2023-04-13T17:33:16.936Z,10.38
2023-04-13T17:35:43.589Z,9.66
2023-04-13T17:38:10.310Z,10.04
2023-04-13T17:40:37.007Z,9.91
2023-04-13T17:43:05.777Z,9.66
2023-04-13T17:45:32.546Z,9.46
2023-04-13T17:47:59.351Z,9.86
2023-04-13T17:50:26.108Z,9.82
2023-04-13T17:52:52.768Z,9.60
2023-04-13T17:55:19.525Z,9.78
2023-04-13T17:57:46.224Z,10.00
2023-04-13T18:00:13.322Z,9.66
2023-04-13T18:02:40.187Z,9.55
2023-04-13T18:05:07.464Z,9.78
2023-04-13T18:07:34.118Z,9.37
2023-04-13T18:10:00.781Z,9.53
2023-04-13T18:12:27.457Z,9.44
2023-04-13T18:14:54.154Z,9.47
2023-04-13T18:17:21.774Z,9.42
2023-04-13T18:19:51.613Z,9.25
2023-04-13T18:22:18.288Z,9.14
2023-04-13T18:24:44.977Z,9.17
2023-04-13T18:27:12.291Z,8.98
2023-04-13T18:29:39.016Z,8.95
2023-04-13T18:32:05.820Z,8.67
2023-04-13T18:34:34.417Z,8.77
2023-04-13T18:37:02.476Z,9.04
2023-04-13T18:39:29.141Z,8.84
2023-04-13T18:41:55.867Z,8.70
2023-04-13T18:44:22.599Z,8.92
2023-04-13T18:46:49.394Z,8.99
2023-04-13T18:49:16.893Z,8.93
2023-04-13T18:51:44.299Z,9.39
2023-04-13T18:54:11.000Z,9.18
2023-04-13T18:56:37.683Z,9.36
2023-04-13T18:59:04.413Z,10.03
2023-04-13T19:01:31.102Z,9.88
2023-04-13T19:03:57.945Z,9.90
2023-04-13T19:06:25.072Z,9.72
2023-04-13T19:08:51.734Z,9.24
2023-04-13T19:11:19.738Z,9.43
2023-04-13T19:13:48.255Z,9.31
2023-04-13T19:16:14.950Z,8.82
2023-04-13T19:18:41.737Z,8.75
2023-04-13T19:21:08.469Z,8.69
2023-04-13T19:23:35.530Z,8.40
2023-04-13T19:26:03.267Z,8.22
2023-04-13T19:28:29.951Z,8.34
2023-04-13T19:30:56.771Z,8.24
2023-04-13T19:33:23.458Z,8.16
2023-04-13T19:35:50.116Z,8.17
2023-04-13T19:38:17.049Z,8.34
2023-04-13T19:40:43.791Z,8.22
2023-04-13T19:43:10.489Z,8.30
2023-04-13T19:45:37.230Z,8.28
2023-04-13T19:48:04.044Z,8.27
2023-04-13T19:50:30.796Z,8.16
2023-04-13T19:52:58.363Z,8.11
2023-04-13T19:55:25.103Z,8.30
2023-04-13T19:57:51.849Z,8.19
2023-04-13T20:00:20.398Z,8.23
2023-04-13T20:02:49.823Z,8.06
2023-04-13T20:05:17.084Z,8.12
2023-04-13T20:07:43.733Z,7.93
2023-04-13T20:10:11.571Z,7.99
2023-04-13T20:12:38.401Z,8.04
2023-04-13T20:15:05.504Z,7.83
2023-04-13T20:17:32.239Z,7.99
2023-04-13T20:20:00.316Z,8.15
2023-04-13T20:22:27.131Z,8.34
2023-04-13T20:24:53.986Z,8.20
2023-04-13T20:27:23.602Z,8.22
2023-04-13T20:29:51.489Z,8.20
2023-04-13T20:32:18.200Z,8.31
2023-04-13T20:34:45.395Z,8.15
2023-04-13T20:37:14.548Z,8.00
2023-04-13T20:39:50.607Z,8.36
2023-04-13T20:42:18.404Z,8.24
2023-04-13T20:44:46.098Z,8.51
2023-04-13T20:47:13.847Z,8.38
2023-04-13T20:49:47.230Z,8.88
2023-04-13T20:52:14.232Z,8.53
2023-04-13T20:54:41.598Z,8.44
2023-04-13T20:57:09.515Z,8.48
2023-04-13T20:59:37.430Z,8.30
2023-04-13T21:02:04.980Z,8.15
2023-04-13T21:04:31.838Z,8.23
2023-04-13T21:07:02.294Z,8.50
2023-04-13T21:09:29.597Z,8.65
2023-04-13T21:11:57.012Z,8.21
2023-04-13T21:14:24.959Z,8.27
2023-04-13T21:16:52.039Z,8.44
2023-04-13T21:19:18.994Z,8.53
2023-04-13T21:21:45.657Z,8.56
2023-04-13T21:24:12.325Z,8.17
2023-04-13T21:26:39.046Z,8.33
2023-04-13T21:29:05.851Z,8.21
2023-04-13T21:31:32.518Z,7.96
2023-04-13T21:34:00.145Z,8.05
2023-04-13T21:38:57.099Z,8.10
2023-04-13T21:41:23.766Z,8.40
2023-04-13T21:43:50.445Z,8.85
2023-04-13T21:46:17.153Z,8.49
2023-04-13T21:48:43.897Z,8.24
2023-04-13T21:51:10.801Z,8.33
2023-04-13T21:53:38.362Z,8.51
2023-04-13T21:56:05.514Z,8.54
2023-04-13T21:58:41.848Z,8.52
2023-04-13T22:01:08.770Z,8.50
2023-04-13T22:03:37.129Z,8.60
2023-04-13T22:06:04.856Z,8.58
2023-04-13T22:08:32.228Z,8.68
2023-04-13T22:10:59.053Z,8.63
2023-04-13T22:13:25.848Z,9.06
2023-04-13T22:15:52.537Z,8.82
2023-04-13T22:18:19.253Z,8.72
2023-04-13T22:20:46.118Z,8.74
2023-04-13T22:23:12.887Z,8.76
2023-04-13T22:25:39.555Z,8.50
2023-04-13T22:28:06.243Z,8.75
2023-04-13T22:30:32.952Z,8.88
2023-04-13T22:32:59.698Z,8.88
2023-04-13T22:35:26.821Z,9.17
2023-04-13T22:37:53.588Z,9.11
2023-04-13T22:40:20.229Z,9.10
2023-04-13T22:42:46.878Z,9.41
2023-04-13T22:45:13.503Z,9.33
2023-04-13T22:47:40.179Z,9.19
2023-04-13T22:50:07.317Z,9.27
2023-04-13T22:52:33.976Z,9.36
2023-04-13T22:55:00.732Z,9.27
2023-04-13T22:57:27.381Z,9.04
2023-04-13T22:59:54.074Z,9.17
2023-04-13T23:02:20.861Z,9.61
2023-04-13T23:04:47.750Z,9.42
2023-04-13T23:07:14.507Z,9.54
2023-04-13T23:09:41.142Z,9.51
2023-04-13T23:12:07.885Z,9.84
2023-04-13T23:14:34.621Z,9.52
2023-04-13T23:17:01.348Z,9.72
2023-04-13T23:19:28.037Z,9.71
2023-04-13T23:21:54.713Z,9.71
2023-04-13T23:24:21.361Z,9.94
2023-04-13T23:26:48.009Z,10.14
2023-04-13T23:29:16.330Z,10.04
2023-04-13T23:31:43.302Z,10.28
2023-04-13T23:34:10.007Z,10.49
2023-04-13T23:36:36.773Z,10.57
2023-04-13T23:39:04.445Z,10.17
2023-04-13T23:41:31.122Z,10.29
2023-04-13T23:43:57.891Z,10.44
2023-04-13T23:46:24.704Z,10.14
2023-04-13T23:48:51.618Z,10.02
2023-04-13T23:51:18.314Z,10.35
2023-04-13T23:53:44.946Z,10.23
2023-04-13T23:56:11.616Z,10.22
2023-04-13T23:58:38.269Z,10.38
